Terminal Aerodrome Forecast
Issued by NWS Boston, MA

Home | Current Version | Previous Version | Text Only | Print | Product List | Glossary On
Versions: 1 2 3 4 5 6 7 8 9 10 11 12 13 14 15 16 17 18 19 20 21 22 23 24 25 26 27 28 29 30 31 32 33 34 35 36 37 38 39
569
FTUS41 KBOX 141723
TAFBOS
TAF
KBOS 141723Z 1418/1524 31011G23KT P6SM FEW250
     FM150000 29007KT P6SM SKC
     FM151500 22005KT P6SM SCT250
     FM151800 19005KT P6SM BKN110
     FM152200 18006KT P6SM -SN BKN070=

USA.gov is the U.S. government's official web portal to all federal, state and local government web resources and services.